23MI weather

Betsie River Airstrip
Thompsonville, Michigan, United States

Public forecast

Using degrees Fahrenheit for public forecast. Weather courtesy of forecast.io.

METAR (pilot weather report)

Closest report is Frankfort Dow Memorial Field, 13.7 nm (25.3 km) WNW. Retrieved 2019/06/26 01:39 UTC (23 seconds ago):

KFKS 260139Z AUTO 19013G23KT 160V220 10SM CLR 22/15 A2977 RMK AO2 T02190149

TAF (pilot weather forecast)

Forecast is more than 12 hours old.

Closest forecast is Cherry Capital Airport, 16.5 nm (30.6 km) NE. Retrieved 2019/06/25 00:22 UTC (1 day ago):

TAF KTVC 252320Z 2600/2624 22011G18KT P6SM SCT100 SCT200 WS020/24040KT FM260400 21010KT P6SM FEW250 FM261300 27005KT P6SM FEW250 FM261700 26010G16KT P6SM FEW040 SCT250